»·PEaware :: SWA1826 KONT-KLAS

SWA1826 :: KONT-KLAS

FLIGHT INFORMATION

Flight Status: Arrived
Operator:
Southwest Airlines
More flights by this operator :: More flights under this callsign
Pilot: Sanjiv Singh (4490)
Aircraft: BOEING 737-300
(B733)
More flights by this aircraft type
Origin: KONT Ontario Intl
United States
Destination: KLAS McCarran Intl
United States
More flights between these airports :: More routes between these airports
Route: +POM9 DAG KEPEC3
File this flight plan on PilotEdge
Remarks:
Altitude:
(Current/Filed)
25,000ft
Speed:
(Current/Filed)
430kts
Departed: 12-Nov-16 08:41 AM
Arrived: 12-Nov-16 09:27 AM
Distance/Time
Traveled:
171nm/0:46
Distance/Time
To Go:
Arrived

Flight Plot

Page will automatically refresh every two minutes.

Filed plans courtesy of Ian Elchitz and SimRoutes.com


Map Options




Map Legend


Flown Route
Filed Route
Departure Airport
Arrival Airport
Navaid (VOR, NDB)
Fix

Horizontal Profiles

Position Reports

Time Latitude Longitude Heading Altitude Ground
Speed
12-Nov-16 08:08 34.059729 -117.590121 2 950ft 0kts
12-Nov-16 08:09 34.059729 -117.590121 2 950ft 0kts
12-Nov-16 08:10 34.059729 -117.590121 2 950ft 0kts
12-Nov-16 08:11 34.059729 -117.590121 2 950ft 0kts
12-Nov-16 08:12 34.059729 -117.590121 2 950ft 0kts
12-Nov-16 08:13 34.059729 -117.590121 2 950ft 0kts
12-Nov-16 08:14 34.059729 -117.590121 2 950ft 0kts
12-Nov-16 08:15 34.059729 -117.590121 2 950ft 0kts
12-Nov-16 08:16 34.059729 -117.590121 2 950ft 0kts
12-Nov-16 08:17 34.059729 -117.590121 2 950ft 0kts
12-Nov-16 08:18 34.059729 -117.590121 2 950ft 0kts
12-Nov-16 08:19 34.059729 -117.590121 2 950ft 0kts
12-Nov-16 08:20 34.059729 -117.590121 2 950ft 0kts
12-Nov-16 08:21 34.059729 -117.590121 2 950ft 0kts
12-Nov-16 08:22 34.059259 -117.590185 31 950ft 0kts
12-Nov-16 08:23 34.059141 -117.590438 80 950ft 0kts
12-Nov-16 08:24 34.059161 -117.590386 59 950ft 0kts
12-Nov-16 08:25 34.059211 -117.590196 83 950ft 0kts
12-Nov-16 08:26 34.059211 -117.590196 83 950ft 0kts
12-Nov-16 08:27 34.059211 -117.590196 83 950ft 0kts
12-Nov-16 08:28 34.059211 -117.590196 83 950ft 0kts
12-Nov-16 08:29 34.059229 -117.589071 90 950ft 6kts
12-Nov-16 08:30 34.059228 -117.586516 90 950ft 8kts
12-Nov-16 08:31 34.059181 -117.582835 124 950ft 9kts
12-Nov-16 08:32 34.057529 -117.582693 180 950ft 0kts
12-Nov-16 08:33 34.057529 -117.582693 180 950ft 0kts
12-Nov-16 08:34 34.056894 -117.583170 270 950ft 0kts
12-Nov-16 08:35 34.056805 -117.604959 268 1049ft 168kts
12-Nov-16 08:36 34.056119 -117.659184 267 3608ft 186kts
12-Nov-16 08:37 34.053842 -117.733078 272 5841ft 242kts
12-Nov-16 08:38 34.089834 -117.799498 316 7025ft 249kts
12-Nov-16 08:39 34.139595 -117.856601 315 9641ft 257kts
12-Nov-16 08:40 34.192075 -117.917559 315 12308ft 275kts
12-Nov-16 08:41 34.246996 -117.981610 315 13985ft 281kts
12-Nov-16 08:42 34.316881 -118.012246 11 13999ft 284kts
12-Nov-16 08:43 34.373265 -117.947759 72 14056ft 333kts
12-Nov-16 08:44 34.402297 -117.836371 65 15963ft 368kts
12-Nov-16 08:45 34.450678 -117.728697 61 18364ft 381kts
12-Nov-16 08:46 34.501597 -117.616156 60 20009ft 404kts
12-Nov-16 08:47 34.554768 -117.498119 59 21989ft 418kts
12-Nov-16 08:48 34.607973 -117.379598 59 23793ft 429kts
12-Nov-16 08:49 34.664677 -117.253898 59 25195ft 442kts
12-Nov-16 08:50 34.721423 -117.126674 59 25253ft 429kts
12-Nov-16 08:51 34.777581 -117.000209 59 25237ft 433kts
12-Nov-16 08:52 34.834009 -116.872646 59 25238ft 432kts
12-Nov-16 08:53 34.890286 -116.745001 59 25238ft 432kts
12-Nov-16 08:54 34.945888 -116.618328 59 25244ft 430kts
12-Nov-16 08:55 35.015514 -116.511058 42 24389ft 411kts
12-Nov-16 08:56 35.093136 -116.414775 43 24268ft 429kts
12-Nov-16 08:57 35.168851 -116.319848 43 24262ft 426kts
12-Nov-16 08:58 35.249064 -116.219684 43 24268ft 424kts
12-Nov-16 08:59 35.330440 -116.117363 43 23492ft 432kts
12-Nov-16 09:00 35.413409 -116.012613 44 19159ft 437kts
12-Nov-16 09:01 35.490115 -115.915490 45 18222ft 355kts
12-Nov-16 09:02 35.553527 -115.835021 45 16643ft 326kts
12-Nov-16 09:03 35.614917 -115.756915 45 14544ft 318kts
12-Nov-16 09:04 35.674423 -115.681031 45 13062ft 303kts
12-Nov-16 09:05 35.734343 -115.605977 45 13025ft 313kts
12-Nov-16 09:06 35.811461 -115.571647 1 13028ft 315kts
12-Nov-16 09:07 35.897839 -115.566150 1 13016ft 313kts
12-Nov-16 09:08 35.976858 -115.539868 56 12902ft 318kts
12-Nov-16 09:09 36.008665 -115.442150 70 11541ft 307kts
12-Nov-16 09:10 36.028857 -115.348248 97 10848ft 270kts
12-Nov-16 09:11 36.022979 -115.259267 98 9410ft 268kts
12-Nov-16 09:12 36.016740 -115.169718 97 8763ft 266kts
12-Nov-16 09:13 36.011031 -115.083461 98 7977ft 234kts
12-Nov-16 09:14 36.005564 -115.003515 96 6512ft 239kts
12-Nov-16 09:15 36.014733 -114.933355 1 5034ft 206kts
12-Nov-16 09:16 36.055342 -114.961606 299 4249ft 166kts
12-Nov-16 09:17 36.072224 -115.011749 275 3399ft 135kts
12-Nov-16 09:18 36.073082 -115.059820 269 3031ft 146kts
12-Nov-16 09:19 36.073621 -115.106655 270 2429ft 134kts
12-Nov-16 09:20 36.073957 -115.144122 293 2148ft 48kts
12-Nov-16 09:21 36.074751 -115.145937 301 2148ft 0kts
12-Nov-16 09:22 36.075110 -115.146460 336 2148ft 5kts
12-Nov-16 09:23 36.077516 -115.146751 333 2148ft 11kts
12-Nov-16 09:24 36.080630 -115.148242 359 2148ft 1kts
12-Nov-16 09:25 36.081003 -115.147701 57 2148ft 0kts

Navigation Log

Ident Type Via Name
1. KONT Airport Direct Ontario Intl
2. POM Navaid POM7 Pomona (110.40)
3. SULZU Fix POM7
4. FROUN Fix POM7
5. DAG Navaid POM7 Daggett (113.20)
6. MISEN Fix Direct
7. CLARR Fix KEPEC3
8. SKEBR Fix KEPEC3
9. KEPEC Fix KEPEC3
10. IPUMY Fix KEPEC3
11. NIPZO Fix KEPEC3
12. SUNST Fix KEPEC3
13. KIMME Fix KEPEC3
14. CHIPZ Fix KEPEC3
15. POKRR Fix KEPEC3
16. PRINO Fix KEPEC3
17. KLAS Airport KEPEC3 Las Vegas / Mccarran Intl